Historyczne dane pomiarowe

Dodano dane terminowe – wersja testowa.

Dane z okresu 1951-2019

Wersja bazy: 1.34 [2019-03-16, lista zmian], aktualizacja planowana na 2019-04-15

Dane meteo z obszaru Polski uzyskane na podstawie danych udostępnionych przez Instytut Meteorologii i Gospodarki Wodnej – Państwowy Instytut Badawczy.

 

Wybierz Datę:    

       

TemperaturaWilgotnośćWiatrCiśnienieOpadyŚniegCzas trwania zjawisk
 Stacja t tx tn tng RH VA  wxwx mslp ppp RRR   cm mm wxwxwxwxwxwxwx
1969-06-13 7.2 9.8 4.3- 73.5 7.6 3.5 2.1 0.0 0.0- 800.2 0.0 0.0 0.0- 0.0 6.2-------
1969-06-14 6.5 9.4 5.3- 84.8 8.1 5.0 3.9 0.0 0.0- 797.7 1.7 1.7 0.0- 0.0 4.8 2.1-- 6.0 1.0--
1969-06-15 7.1 8.8 4.9- 95.3 9.6 7.4 2.4 0.0 0.0- 794.9 0.3 0.0 0.3- 0.0 0.0 0.2-- 15.6---
1969-06-16 7.1 9.6 6.0- 99.1 10.0 7.8 6.5 0.0 0.0- 796.7 19.0 18.4 0.6- 0.0 0.2 4.5-- 19.6-- 3.5
1969-06-17 7.8 11.4 5.9- 95.0 10.1 6.5 5.5 0.0 0.0- 799.7 4.4 4.4 0.0- 0.0 1.3 1.1-- 15.3-- 4.3
1969-06-18 8.5 12.1 6.2- 95.4 10.6 6.3 4.0 0.0 0.0- 799.8 2.6 2.6 0.0- 0.0 1.4 0.5-- 8.3-- 1.8
1969-06-19 9.4 12.5 7.5- 87.1 10.2 4.1 6.9 0.0 0.0- 796.5 12.2 5.9 6.3- 0.0 7.6 1.9--- 4.0- 8.0
1969-06-20 7.9 10.3 5.8- 91.9 9.8 7.9 3.5 0.4 0.0- 792.5 9.8 5.4 4.4- 0.0 0.1 8.3-- 18.7-- 2.4
1969-06-21 6.0 7.5 5.4-100.0 9.4 8.0 5.4 2.3 0.0- 792.6 21.9 15.0 6.9- 0.0 0.0 17.0-- 24.0---
1969-06-22 6.8 9.0 4.9- 99.6 9.8 7.8 5.4 0.0 0.0- 798.6 0.0 0.0 0.0- 0.0 0.0 6.5-- 21.5---
1969-06-23 8.0 11.7 5.9- 85.8 9.2 6.5 4.1 1.4 0.0- 801.9 1.6 1.6 0.0- 0.0 1.7 1.1-- 3.8 2.5- 1.9
1969-06-24 8.6 10.5 5.9- 86.8 9.7 6.1 10.3 12.5 0.0- 799.9 9.4 0.0 9.4- 0.0 3.2 0.5-- 8.3 1.5- 1.7
1969-06-25 8.2 11.2 7.0- 98.6 10.7 7.8 5.5 5.2 0.0- 797.2 4.4 0.4 4.0- 0.0 3.8 9.0-- 18.2-- 1.0
1969-06-26 3.1 7.1 1.5-100.0 7.7 8.0 9.4 16.3 0.3- 796.0 13.3 13.3 0.0- 0.0 0.0 13.0-- 24.0---
1969-06-27 1.7 4.6 -0.4- 93.0 6.4 6.9 9.6 12.5 0.0- 800.8 0.0 0.0 0.0- 0.0 2.4--- 6.3---
1969-06-28 4.2 9.5 1.6- 91.1 7.5 6.8 4.5 0.0 0.0- 801.1 15.2 0.0 15.2- 0.0 4.3 2.0-- 7.9-- 5.6
1969-06-29 1.3 4.8 -0.9-100.0 6.8 8.0 5.3 0.0 0.0- 802.1 7.3 7.3 0.0- 0.0 0.0 8.2 5.0- 21.6---
1969-06-30 0.2 1.8 -1.5- 99.0 6.1 7.8 5.5 5.5 0.0- 800.1 29.5 10.2 19.3 2 0.0 0.1 1.6 6.5 3.9 19.0---
1969-07-01 2.6 4.7 0.1- 97.9 7.3 7.0 6.3 1.5 0.0- 801.3 0.9 0.9 0.0 3 0.0 0.0 5.8- 1.1 18.8---
1969-07-02 6.0 9.3 2.8- 85.0 8.0 3.6 1.3 0.0 0.0- 803.5 0.0 0.0 0.0- 0.0 4.1--- 2.3 5.3--
1969-07-03 8.3 11.2 5.5- 81.5 8.9 5.8 2.5 0.0 0.0- 805.9 0.8 0.8 0.0- 0.0 3.0 0.4-- 1.5 4.5--
1969-07-04 9.0 11.6 7.8- 87.3 10.0 6.8 6.0 0.0 0.0- 806.7 1.7 1.5 0.2- 0.0 0.9 1.4-- 7.6-- 4.0
1969-07-05 9.8 11.5 7.5- 91.3 11.1 7.6 2.9 0.0 0.0- 806.1 0.0 0.0 0.0- 0.0 1.1 0.2-- 10.8---
1969-07-06 10.3 13.6 8.9- 88.6 11.1 6.1 4.8 1.6 0.0- 805.1 6.0 4.9 1.1- 0.0 4.0 3.2-- 7.1 2.0- 6.0
1969-07-07 10.0 12.1 7.9- 88.1 10.8 6.0 7.6 7.0 0.0- 801.7 11.3 0.0 11.3- 0.0 6.3 1.0-- 7.1---
1969-07-08 5.5 9.8 1.3- 99.8 9.2 8.0 5.0 0.0 0.0- 798.0 29.9 22.6 7.3- 0.0 0.0 15.9- 0.5 24.0---
1969-07-09 1.7 4.5 -0.7- 98.8 6.9 7.4 2.5 0.0 0.0- 799.2 8.2 3.5 4.7- 0.0 1.5 5.2 1.3- 13.8-- 2.3
1969-07-10 1.7 4.4 0.4-100.0 6.9 8.0 5.6 0.0 0.0- 800.6 14.3 6.7 7.6- 0.0 0.0 5.4 1.9 0.9 20.3---
1969-07-11 1.2 3.0 -0.9-100.0 6.7 8.0 10.9 19.5 0.0- 801.1 17.6 12.3 5.3- 0.0 0.0 4.8 1.7 2.4 24.0---
1969-07-12 1.5 2.8 0.0-100.0 6.8 8.0 17.4 24.0 15.5- 798.4 8.6 7.6 1.0- 0.0 0.0 3.1 0.3 0.6 24.0---
174.8 ms

 

Źródłem pochodzenia danych jest Instytut Meteorologii i Gospodarki Wodnej – Państwowy Instytut Badawczy. Dane Instytutu Meteorologii i Gospodarki Wodnej – Państwowego Instytutu Badawczego zostały przetworzone.

Dane źródłowe można odnaleźć na stronie https://dane.imgw.pl